Ext Tamarindo, Puerto Rico
Current Conditions -  °F | °C
As of 9:56 AM on Friday 19 Dec 2014 (Local Time) from TJSJ Reporting Station
Scattered Clouds Scattered Clouds  
Wind Chill: 82°   Ceiling: Unl
Heat Index: 85°   Visibility: 10mi
Dew Point: 68°   Wind: 14mph
Humidity: 62%   Direction: 70°ENE
Pressure: 30.02"   Gusts: NA
Location:  18.1909°N, 65.9618°W
Report Text: TJSJ 191356Z 07012KT 10SM FEW035 SCT044 SCT080 28/20 A3002 RMK AO2 SLP166 T02780200
Loading
Personal Weather Stations






























Interactive Weather Map New forecast layout! Learn more

10-Day Weather Forecast

Advertisements
Track Severe Weather on mobile